createdAt,value
2022-12-24T00:01:38.492Z,11.58
2022-12-24T00:04:07.641Z,11.68
2022-12-24T00:06:36.468Z,11.67
2022-12-24T00:09:05.732Z,11.73
2022-12-24T00:11:34.296Z,11.72
2022-12-24T00:14:04.280Z,11.71
2022-12-24T00:16:32.934Z,11.74
2022-12-24T00:19:01.528Z,11.78
2022-12-24T00:21:30.085Z,11.78
2022-12-24T00:23:58.561Z,11.75
2022-12-24T00:26:27.107Z,11.70
2022-12-24T00:28:55.791Z,11.75
2022-12-24T00:31:26.331Z,11.66
2022-12-24T00:33:55.813Z,11.67
2022-12-24T00:36:24.747Z,11.67
2022-12-24T00:38:53.399Z,11.57
2022-12-24T00:41:29.031Z,11.51
2022-12-24T00:44:01.019Z,11.54
2022-12-24T00:46:34.714Z,11.55
2022-12-24T00:49:04.894Z,11.58
2022-12-24T00:51:34.629Z,11.54
2022-12-24T00:54:03.406Z,11.50
2022-12-24T00:56:32.181Z,11.47
2022-12-24T00:59:00.743Z,11.49
2022-12-24T01:01:31.056Z,11.53
2022-12-24T01:04:13.506Z,11.43
2022-12-24T01:06:42.106Z,11.32
2022-12-24T01:09:10.620Z,11.32
2022-12-24T01:11:39.597Z,11.31
2022-12-24T01:14:08.107Z,11.21
2022-12-24T01:16:38.019Z,11.27
2022-12-24T01:19:06.804Z,11.25
2022-12-24T01:21:35.413Z,11.27
2022-12-24T01:24:04.174Z,11.21
2022-12-24T01:26:32.776Z,11.15
2022-12-24T01:29:01.410Z,11.15
2022-12-24T01:31:30.138Z,11.09
2022-12-24T01:34:00.212Z,11.12
2022-12-24T01:36:28.763Z,11.11
2022-12-24T01:38:57.464Z,10.97
2022-12-24T01:41:44.608Z,10.96
2022-12-24T01:44:33.469Z,10.90
2022-12-24T01:47:10.875Z,11.00
2022-12-24T01:49:45.988Z,10.96
2022-12-24T01:52:19.531Z,11.09
2022-12-24T01:54:53.739Z,11.06
2022-12-24T01:57:29.224Z,11.09
2022-12-24T02:00:03.020Z,11.01
2022-12-24T02:02:34.820Z,11.10
2022-12-24T02:05:11.360Z,10.97
2022-12-24T02:07:40.848Z,10.96
2022-12-24T02:10:12.185Z,10.99
2022-12-24T02:12:43.203Z,10.83
2022-12-24T02:15:15.665Z,10.83
2022-12-24T02:17:56.175Z,10.83
2022-12-24T02:21:26.660Z,10.81
2022-12-24T02:24:38.265Z,10.80
2022-12-24T02:27:22.422Z,10.88
2022-12-24T02:30:11.853Z,10.87
2022-12-24T02:33:05.276Z,10.85
2022-12-24T02:35:48.489Z,10.74
2022-12-24T02:38:27.795Z,10.83
2022-12-24T02:41:03.399Z,10.77
2022-12-24T02:43:37.269Z,10.67
2022-12-24T02:46:12.864Z,10.77
2022-12-24T02:48:46.089Z,10.73
2022-12-24T02:51:14.903Z,10.63
2022-12-24T02:53:43.729Z,10.64
2022-12-24T02:56:49.311Z,10.57
2022-12-24T03:00:01.235Z,10.65
2022-12-24T03:02:52.637Z,10.66
2022-12-24T03:05:31.332Z,10.57
2022-12-24T03:08:10.352Z,10.55
2022-12-24T03:10:47.717Z,10.59
2022-12-24T03:13:20.166Z,10.55
2022-12-24T03:15:51.287Z,10.42
2022-12-24T03:18:25.858Z,10.38
2022-12-24T03:21:01.716Z,10.27
2022-12-24T03:23:30.836Z,10.26
2022-12-24T03:26:05.847Z,10.34
2022-12-24T03:28:35.554Z,10.34
2022-12-24T03:31:07.277Z,10.31
2022-12-24T03:33:38.104Z,10.26
2022-12-24T03:36:09.533Z,10.38
2022-12-24T03:38:38.397Z,10.34
2022-12-24T03:41:07.504Z,10.30
2022-12-24T03:43:36.356Z,10.31
2022-12-24T03:46:08.042Z,10.24
2022-12-24T03:48:38.211Z,10.17
2022-12-24T03:51:17.502Z,10.16
2022-12-24T03:53:46.230Z,10.14
2022-12-24T03:56:15.096Z,10.07
2022-12-24T03:58:43.835Z,9.93
2022-12-24T04:01:12.464Z,10.08
2022-12-24T04:03:42.394Z,10.24
2022-12-24T04:06:14.610Z,10.30
2022-12-24T04:08:43.485Z,10.47
2022-12-24T04:11:15.865Z,10.52
2022-12-24T04:13:44.708Z,10.56
2022-12-24T04:16:16.712Z,10.66
2022-12-24T04:18:47.090Z,10.69
2022-12-24T04:21:16.236Z,10.70
2022-12-24T04:23:45.042Z,10.64
2022-12-24T04:26:15.123Z,10.60
2022-12-24T04:28:44.571Z,10.59
2022-12-24T04:31:15.595Z,10.48
2022-12-24T04:33:45.997Z,10.42
2022-12-24T04:36:17.398Z,10.26
2022-12-24T04:38:47.094Z,10.21
2022-12-24T04:41:23.024Z,10.09
2022-12-24T04:43:53.127Z,9.80
2022-12-24T04:46:25.097Z,9.75
2022-12-24T04:48:56.207Z,9.53
2022-12-24T04:51:26.308Z,9.40
2022-12-24T04:53:56.538Z,9.37
2022-12-24T04:56:28.668Z,9.40
2022-12-24T04:58:58.061Z,9.28
2022-12-24T05:01:30.879Z,9.28
2022-12-24T05:04:02.165Z,9.27
2022-12-24T05:06:33.865Z,9.25
2022-12-24T05:09:02.794Z,9.19
2022-12-24T05:11:32.369Z,9.14
2022-12-24T05:14:01.181Z,9.04
2022-12-24T05:16:29.827Z,9.12
2022-12-24T05:18:58.384Z,9.11
2022-12-24T05:21:28.403Z,9.11
2022-12-24T05:24:14.896Z,9.06
2022-12-24T05:26:47.420Z,9.02
2022-12-24T05:29:16.423Z,9.08
2022-12-24T05:31:46.755Z,9.09
2022-12-24T05:34:17.637Z,9.06
2022-12-24T05:36:47.763Z,9.10
2022-12-24T05:39:18.819Z,9.25
2022-12-24T05:41:48.394Z,9.34
2022-12-24T05:44:17.356Z,9.42
2022-12-24T05:46:46.859Z,9.56
2022-12-24T05:49:15.969Z,9.66
2022-12-24T05:51:44.934Z,9.66
2022-12-24T05:54:14.806Z,9.67
2022-12-24T05:56:43.330Z,9.69
2022-12-24T05:59:11.875Z,9.69
2022-12-24T06:01:40.617Z,9.63
2022-12-24T06:04:09.202Z,9.68
2022-12-24T06:06:37.811Z,9.72
2022-12-24T06:09:06.574Z,9.58
2022-12-24T06:11:37.187Z,9.67
2022-12-24T06:14:05.859Z,9.69
2022-12-24T06:16:34.644Z,9.71
2022-12-24T06:19:03.329Z,9.72
2022-12-24T06:21:32.363Z,9.71
2022-12-24T06:24:01.385Z,9.71
2022-12-24T06:26:29.959Z,9.68
2022-12-24T06:29:00.123Z,9.53
2022-12-24T06:31:29.180Z,9.54
2022-12-24T06:33:58.209Z,9.51
2022-12-24T06:36:27.502Z,9.40
2022-12-24T06:38:56.549Z,9.36
2022-12-24T06:41:26.397Z,9.39
2022-12-24T06:43:54.973Z,9.35
2022-12-24T06:46:25.405Z,9.39
2022-12-24T06:48:55.053Z,9.40
2022-12-24T06:51:23.797Z,9.43
2022-12-24T06:53:52.445Z,9.47
2022-12-24T06:56:22.506Z,9.54
2022-12-24T06:58:51.310Z,9.48
2022-12-24T07:01:24.327Z,9.44
2022-12-24T07:03:54.433Z,9.33
2022-12-24T07:06:27.977Z,9.32
2022-12-24T07:08:57.593Z,9.27
2022-12-24T07:11:27.752Z,9.35
2022-12-24T07:13:56.708Z,9.37
2022-12-24T07:16:25.420Z,9.39
2022-12-24T07:18:55.388Z,9.38
2022-12-24T07:21:24.132Z,9.39
2022-12-24T07:23:52.738Z,9.47
2022-12-24T07:26:21.436Z,9.35
2022-12-24T07:28:50.249Z,9.26
2022-12-24T07:31:18.831Z,9.29
2022-12-24T07:33:47.562Z,9.33
2022-12-24T07:36:22.212Z,9.40
2022-12-24T07:38:51.077Z,9.33
2022-12-24T07:41:19.855Z,9.39
2022-12-24T07:43:48.565Z,9.42
2022-12-24T07:46:17.246Z,9.56
2022-12-24T07:48:46.060Z,9.68
2022-12-24T07:51:14.902Z,9.83
2022-12-24T07:53:48.118Z,9.95
2022-12-24T07:56:17.322Z,10.08
2022-12-24T07:58:46.073Z,10.25
2022-12-24T08:01:14.781Z,10.26
2022-12-24T08:03:43.598Z,10.30
2022-12-24T08:06:13.077Z,10.42
2022-12-24T08:08:41.738Z,10.57
2022-12-24T08:11:15.469Z,10.65
2022-12-24T08:13:44.706Z,10.77
2022-12-24T08:16:13.797Z,10.94
2022-12-24T08:18:44.351Z,10.87
2022-12-24T08:21:12.960Z,11.05
2022-12-24T08:23:41.863Z,11.06
2022-12-24T08:26:13.569Z,11.02
2022-12-24T08:28:42.560Z,11.31
2022-12-24T08:31:11.636Z,11.46
2022-12-24T08:33:40.549Z,11.52
2022-12-24T08:36:10.318Z,11.62
2022-12-24T08:38:39.378Z,11.67
2022-12-24T08:41:08.190Z,11.76
2022-12-24T08:43:38.148Z,11.96
2022-12-24T08:46:07.835Z,12.06
2022-12-24T08:48:37.659Z,12.24
2022-12-24T08:51:09.787Z,12.20
2022-12-24T08:53:38.959Z,12.35
2022-12-24T08:56:10.938Z,12.15
2022-12-24T08:58:41.742Z,11.86
2022-12-24T09:01:17.529Z,11.65
2022-12-24T09:03:47.011Z,11.58
2022-12-24T09:06:16.873Z,11.68
2022-12-24T09:08:45.613Z,11.54
2022-12-24T09:11:17.882Z,11.59
2022-12-24T09:13:48.272Z,11.60
2022-12-24T09:16:17.200Z,11.71
2022-12-24T09:18:45.870Z,11.74
2022-12-24T09:21:17.576Z,11.82
2022-12-24T09:23:49.333Z,11.90
2022-12-24T09:26:21.619Z,11.89
2022-12-24T09:28:52.813Z,11.82
2022-12-24T09:31:22.233Z,11.64
2022-12-24T09:33:52.715Z,11.56
2022-12-24T09:36:22.391Z,11.56
2022-12-24T09:38:51.192Z,11.63
2022-12-24T09:41:38.456Z,11.74
2022-12-24T09:44:32.289Z,11.62
2022-12-24T09:47:12.759Z,11.63
2022-12-24T09:49:48.955Z,11.75
2022-12-24T09:52:30.742Z,11.81
2022-12-24T09:55:09.191Z,11.72
2022-12-24T09:57:42.827Z,11.85
2022-12-24T10:00:24.641Z,12.06
2022-12-24T10:02:54.075Z,12.18
2022-12-24T10:05:38.688Z,12.20
2022-12-24T10:08:22.959Z,12.17
2022-12-24T10:10:56.638Z,12.22
2022-12-24T10:13:46.117Z,12.05
2022-12-24T10:16:26.684Z,12.18
2022-12-24T10:19:06.519Z,12.16
2022-12-24T10:21:51.975Z,11.96
2022-12-24T10:24:27.343Z,11.87
2022-12-24T10:27:04.184Z,11.78
2022-12-24T10:29:37.896Z,11.75
2022-12-24T10:32:22.306Z,11.82
2022-12-24T10:35:00.400Z,11.90
2022-12-24T10:37:31.743Z,11.95
2022-12-24T10:40:03.961Z,12.04
2022-12-24T10:42:50.105Z,12.07
2022-12-24T10:45:23.903Z,12.19
2022-12-24T10:48:04.008Z,12.43
2022-12-24T10:50:40.467Z,12.64
2022-12-24T10:53:21.238Z,12.82
2022-12-24T10:55:50.976Z,12.99
2022-12-24T10:58:21.479Z,13.17
2022-12-24T11:00:55.197Z,13.44
2022-12-24T11:03:32.355Z,14.02
2022-12-24T11:06:08.180Z,13.90
2022-12-24T11:08:38.887Z,14.48
2022-12-24T11:11:10.715Z,14.52
2022-12-24T11:13:45.275Z,14.53
2022-12-24T11:16:22.467Z,14.68
2022-12-24T11:18:55.288Z,14.62
2022-12-24T11:21:28.810Z,14.63
2022-12-24T11:24:00.834Z,14.38
2022-12-24T11:26:32.847Z,14.57
2022-12-24T11:29:24.786Z,14.32
2022-12-24T11:32:11.018Z,14.37
2022-12-24T11:34:45.439Z,14.83
2022-12-24T11:37:21.629Z,14.74
2022-12-24T11:39:57.792Z,14.22
2022-12-24T11:42:33.419Z,14.24
2022-12-24T11:45:08.730Z,14.26
2022-12-24T11:47:41.679Z,14.23
2022-12-24T11:50:27.264Z,14.35
2022-12-24T11:53:06.950Z,14.34
2022-12-24T11:55:45.155Z,14.45
2022-12-24T11:58:27.024Z,14.36
2022-12-24T12:01:08.810Z,14.90
2022-12-24T12:03:48.197Z,15.24
2022-12-24T12:06:30.093Z,14.80
2022-12-24T12:09:06.126Z,14.65
2022-12-24T12:11:39.559Z,14.59
2022-12-24T12:14:18.116Z,14.81
2022-12-24T12:17:04.049Z,14.39
2022-12-24T12:19:44.457Z,14.63
2022-12-24T12:22:27.808Z,14.59
2022-12-24T12:25:00.190Z,14.58
2022-12-24T12:27:36.907Z,14.51
2022-12-24T12:30:15.483Z,14.47
2022-12-24T12:32:55.004Z,14.06
2022-12-24T12:35:30.357Z,13.90
2022-12-24T12:38:05.001Z,13.77
2022-12-24T12:41:05.263Z,13.83
2022-12-24T12:43:58.174Z,13.62
2022-12-24T12:46:41.480Z,13.86
2022-12-24T12:49:30.297Z,13.98
2022-12-24T12:52:06.367Z,13.97
2022-12-24T12:54:56.831Z,13.88
2022-12-24T12:57:33.983Z,13.50
2022-12-24T13:00:07.690Z,13.58
2022-12-24T13:03:04.264Z,13.86
2022-12-24T13:06:16.279Z,14.05
2022-12-24T13:09:26.245Z,14.24
2022-12-24T13:12:27.603Z,14.16
2022-12-24T13:15:36.333Z,14.17
2022-12-24T13:18:43.179Z,14.12
2022-12-24T13:21:21.484Z,14.11
2022-12-24T13:23:50.881Z,14.12
2022-12-24T13:26:19.748Z,14.07
2022-12-24T13:28:49.712Z,13.84
2022-12-24T13:31:30.845Z,14.01
2022-12-24T13:34:04.459Z,13.98
2022-12-24T13:37:20.729Z,14.14
2022-12-24T13:40:17.762Z,14.15
2022-12-24T13:43:09.953Z,13.94
2022-12-24T13:45:52.318Z,13.89
2022-12-24T13:48:34.314Z,13.87
2022-12-24T13:51:21.357Z,13.65
2022-12-24T13:53:50.905Z,13.74
2022-12-24T13:56:27.852Z,13.75
2022-12-24T13:59:14.370Z,13.50
2022-12-24T14:01:46.190Z,13.54
2022-12-24T14:04:28.066Z,13.57
2022-12-24T14:07:02.073Z,13.47
2022-12-24T14:09:33.874Z,13.31
2022-12-24T14:12:46.775Z,13.13
2022-12-24T14:16:02.899Z,12.92
2022-12-24T14:18:38.662Z,12.80
2022-12-24T14:21:09.564Z,12.79
2022-12-24T14:23:52.463Z,12.55
2022-12-24T14:26:24.680Z,12.39
2022-12-24T14:28:59.322Z,12.33
2022-12-24T14:31:28.348Z,12.33
2022-12-24T14:34:10.629Z,12.22
2022-12-24T14:36:41.118Z,12.16
2022-12-24T14:39:23.357Z,11.90
2022-12-24T14:42:07.269Z,11.78
2022-12-24T14:44:48.395Z,11.64
2022-12-24T14:47:36.155Z,11.37
2022-12-24T14:50:49.279Z,11.15
2022-12-24T14:53:42.842Z,10.76
2022-12-24T14:56:16.823Z,10.69
2022-12-24T14:58:47.533Z,10.52
2022-12-24T15:01:24.495Z,10.41
2022-12-24T15:04:05.915Z,10.22
2022-12-24T15:06:40.117Z,10.19
2022-12-24T15:09:19.443Z,10.24
2022-12-24T15:11:52.854Z,10.37
2022-12-24T15:14:25.218Z,10.54
2022-12-24T15:16:58.799Z,10.56
2022-12-24T15:19:33.407Z,10.64
2022-12-24T15:22:05.230Z,10.66
2022-12-24T15:24:37.683Z,10.66
2022-12-24T15:27:18.546Z,10.65
2022-12-24T15:29:51.755Z,10.58
2022-12-24T15:32:22.713Z,10.57
2022-12-24T15:34:54.336Z,10.62
2022-12-24T15:37:27.509Z,10.52
2022-12-24T15:39:59.396Z,10.59
2022-12-24T15:42:29.902Z,10.48
2022-12-24T15:45:04.977Z,10.16
2022-12-24T15:47:38.869Z,10.04
2022-12-24T15:50:17.954Z,9.82
2022-12-24T15:52:48.919Z,9.50
2022-12-24T15:55:41.847Z,9.30
2022-12-24T15:58:25.432Z,9.16
2022-12-24T16:01:05.215Z,9.08
2022-12-24T16:03:35.407Z,8.99
2022-12-24T16:06:06.058Z,8.89
2022-12-24T16:08:39.107Z,8.92
2022-12-24T16:11:19.216Z,8.85
2022-12-24T16:14:12.976Z,8.78
2022-12-24T16:16:47.443Z,8.65
2022-12-24T16:19:23.888Z,8.47
2022-12-24T16:22:22.342Z,8.40
2022-12-24T16:25:03.641Z,8.39
2022-12-24T16:27:35.868Z,8.31
2022-12-24T16:30:04.814Z,8.24
2022-12-24T16:32:38.011Z,8.18
2022-12-24T16:35:19.208Z,8.14
2022-12-24T16:37:47.952Z,8.15
2022-12-24T16:40:24.900Z,8.10
2022-12-24T16:43:13.279Z,8.06
2022-12-24T16:45:42.319Z,8.11
2022-12-24T16:48:20.395Z,8.16
2022-12-24T16:50:49.563Z,8.22
2022-12-24T16:53:21.123Z,8.23
2022-12-24T16:55:52.446Z,8.22
2022-12-24T16:58:21.795Z,8.28
2022-12-24T17:00:50.456Z,8.13
2022-12-24T17:03:19.131Z,8.09
2022-12-24T17:05:47.948Z,8.06
2022-12-24T17:08:16.526Z,8.02
2022-12-24T17:10:53.276Z,7.98
2022-12-24T17:13:21.885Z,7.99
2022-12-24T17:15:50.532Z,7.97
2022-12-24T17:18:19.260Z,7.97
2022-12-24T17:20:58.676Z,7.96
2022-12-24T17:23:27.452Z,7.93
2022-12-24T17:25:58.168Z,7.99
2022-12-24T17:28:26.885Z,8.03
2022-12-24T17:30:57.465Z,8.07
2022-12-24T17:33:26.522Z,8.21
2022-12-24T17:35:55.038Z,8.37
2022-12-24T17:38:23.721Z,8.48
2022-12-24T17:40:52.271Z,8.48
2022-12-24T17:43:22.297Z,8.49
2022-12-24T17:45:53.000Z,8.61
2022-12-24T17:48:21.780Z,8.59
2022-12-24T17:50:50.412Z,8.60
2022-12-24T17:53:18.950Z,8.49
2022-12-24T17:55:48.526Z,8.54
2022-12-24T17:58:17.182Z,8.53
2022-12-24T18:00:47.355Z,8.54
2022-12-24T18:03:16.001Z,8.49
2022-12-24T18:05:44.587Z,8.46
2022-12-24T18:08:13.385Z,8.55
2022-12-24T18:10:42.102Z,8.66
2022-12-24T18:13:17.222Z,8.82
2022-12-24T18:15:49.135Z,8.91
2022-12-24T18:18:17.755Z,8.98
2022-12-24T18:20:47.097Z,8.89
2022-12-24T18:23:15.982Z,9.02
2022-12-24T18:25:44.506Z,9.01
2022-12-24T18:28:13.142Z,9.08
2022-12-24T18:30:41.789Z,9.15
2022-12-24T18:33:11.768Z,9.09
2022-12-24T18:35:40.430Z,9.12
2022-12-24T18:38:09.491Z,9.16
2022-12-24T18:40:38.557Z,9.18
2022-12-24T18:43:07.200Z,9.12
2022-12-24T18:45:35.880Z,8.95
2022-12-24T18:48:04.647Z,8.97
2022-12-24T18:50:34.589Z,8.92
2022-12-24T18:53:03.185Z,8.81
2022-12-24T18:55:34.957Z,8.81
2022-12-24T18:58:03.708Z,8.88
2022-12-24T19:00:32.449Z,8.81
2022-12-24T19:03:01.266Z,8.84
2022-12-24T19:05:29.812Z,8.85
2022-12-24T19:08:02.012Z,8.77
2022-12-24T19:10:39.827Z,8.74
2022-12-24T19:13:08.609Z,8.79
2022-12-24T19:15:40.799Z,8.82
2022-12-24T19:18:09.441Z,8.80
2022-12-24T19:20:41.938Z,8.71
2022-12-24T19:23:11.952Z,8.85
2022-12-24T19:25:40.619Z,8.85
2022-12-24T19:28:09.761Z,8.89
2022-12-24T19:30:40.130Z,8.87
2022-12-24T19:33:08.877Z,8.92
2022-12-24T19:35:37.744Z,9.07
2022-12-24T19:38:06.607Z,9.15
2022-12-24T19:40:39.602Z,9.34
2022-12-24T19:43:08.213Z,9.36
2022-12-24T19:45:36.839Z,9.41
2022-12-24T19:48:05.983Z,9.40
2022-12-24T19:50:34.487Z,9.27
2022-12-24T19:53:03.054Z,9.35
2022-12-24T19:55:31.762Z,9.40
2022-12-24T19:58:01.648Z,9.37
2022-12-24T20:00:30.683Z,9.35
2022-12-24T20:02:59.424Z,9.32
2022-12-24T20:05:28.164Z,9.34
2022-12-24T20:07:57.255Z,9.23
2022-12-24T20:10:25.884Z,9.21
2022-12-24T20:12:54.391Z,9.16
2022-12-24T20:15:24.401Z,9.17
2022-12-24T20:17:54.473Z,9.14
2022-12-24T20:20:23.164Z,9.08
2022-12-24T20:22:51.982Z,9.04
2022-12-24T20:25:20.756Z,9.16
2022-12-24T20:27:49.437Z,9.11
2022-12-24T20:30:18.079Z,9.06
2022-12-24T20:32:48.061Z,9.01
2022-12-24T20:35:16.996Z,8.93
2022-12-24T20:37:46.399Z,8.96
2022-12-24T20:40:15.867Z,8.97
2022-12-24T20:42:44.664Z,8.88
2022-12-24T20:45:14.469Z,8.81
2022-12-24T20:47:43.031Z,8.80
2022-12-24T20:50:13.248Z,8.82
2022-12-24T20:52:41.837Z,8.84
2022-12-24T20:55:11.601Z,8.92
2022-12-24T20:57:40.116Z,8.90
2022-12-24T21:00:11.429Z,8.98
2022-12-24T21:02:40.282Z,8.98
2022-12-24T21:05:09.450Z,9.02
2022-12-24T21:07:40.665Z,9.04
2022-12-24T21:10:11.002Z,8.99
2022-12-24T21:12:56.809Z,9.05
2022-12-24T21:15:29.455Z,9.18
2022-12-24T21:17:59.515Z,9.13
2022-12-24T21:20:31.206Z,9.14
2022-12-24T21:23:02.027Z,9.16
2022-12-24T21:25:30.730Z,9.17
2022-12-24T21:27:59.441Z,9.22
2022-12-24T21:30:28.126Z,9.20
2022-12-24T21:32:56.738Z,9.24
2022-12-24T21:35:25.372Z,9.25
2022-12-24T21:37:53.898Z,9.23
2022-12-24T21:40:23.819Z,9.26
2022-12-24T21:42:52.333Z,9.21
2022-12-24T21:45:20.899Z,9.26
2022-12-24T21:47:49.381Z,9.30
2022-12-24T21:50:32.533Z,9.27
2022-12-24T21:53:15.610Z,9.35
2022-12-24T21:55:45.655Z,9.32
2022-12-24T21:58:13.171Z,9.32
2022-12-24T22:00:41.999Z,9.35
2022-12-24T22:03:10.602Z,9.31
2022-12-24T22:05:39.199Z,9.38
2022-12-24T22:08:25.331Z,9.38
2022-12-24T22:11:27.449Z,9.33
2022-12-24T22:13:56.175Z,9.16
2022-12-24T22:16:24.783Z,9.12
2022-12-24T22:18:53.403Z,9.20
2022-12-24T22:21:22.291Z,9.26
2022-12-24T22:23:50.937Z,9.38
2022-12-24T22:26:20.952Z,9.37
2022-12-24T22:28:49.482Z,9.33
2022-12-24T22:31:19.258Z,9.27
2022-12-24T22:33:48.619Z,9.30
2022-12-24T22:36:17.297Z,9.28
2022-12-24T22:38:46.846Z,9.29
2022-12-24T22:41:15.555Z,9.25
2022-12-24T22:43:45.853Z,9.28
2022-12-24T22:46:15.665Z,9.27
2022-12-24T22:48:46.346Z,9.26
2022-12-24T22:51:18.779Z,9.25
2022-12-24T22:53:47.904Z,9.14
2022-12-24T22:56:21.349Z,9.22
2022-12-24T22:58:55.301Z,9.23
2022-12-24T23:01:34.112Z,9.20
2022-12-24T23:04:03.757Z,9.21
2022-12-24T23:06:32.543Z,9.20
2022-12-24T23:09:01.232Z,9.17
2022-12-24T23:11:30.054Z,9.20
2022-12-24T23:14:28.770Z,9.26
2022-12-24T23:16:57.416Z,9.24
2022-12-24T23:19:25.915Z,9.17
2022-12-24T23:21:54.685Z,9.22
2022-12-24T23:24:23.463Z,9.21
2022-12-24T23:26:51.976Z,9.24
2022-12-24T23:29:21.909Z,9.25
2022-12-24T23:31:50.483Z,9.18
2022-12-24T23:34:18.897Z,9.24
2022-12-24T23:36:47.488Z,9.22
2022-12-24T23:39:16.531Z,9.27
2022-12-24T23:41:45.507Z,9.29
2022-12-24T23:44:14.419Z,9.26
2022-12-24T23:46:44.542Z,9.18
2022-12-24T23:49:15.668Z,9.23
2022-12-24T23:51:44.201Z,9.20
2022-12-24T23:54:12.639Z,9.17
2022-12-24T23:56:41.261Z,9.11
2022-12-24T23:59:09.871Z,9.14
